createdAt,value
2022-11-16T00:11:10.553Z,11.4
2022-11-16T00:25:39.104Z,11.4
2022-11-16T00:40:07.081Z,11.4
2022-11-16T00:54:34.844Z,11.4
2022-11-16T01:09:03.338Z,11.4
2022-11-16T01:23:32.382Z,11.4
2022-11-16T01:38:00.689Z,11.5
2022-11-16T01:52:28.082Z,11.5
2022-11-16T02:06:59.762Z,11.6
2022-11-16T02:21:24.938Z,11.6
2022-11-16T02:35:53.102Z,11.6
2022-11-16T02:50:20.606Z,11.6
2022-11-16T03:04:48.456Z,11.6
2022-11-16T03:19:16.488Z,11.6
2022-11-16T03:33:42.505Z,11.7
2022-11-16T03:48:12.611Z,11.5
2022-11-16T04:02:38.673Z,11.5
2022-11-16T04:17:06.712Z,11.5
2022-11-16T04:31:34.880Z,11.5
2022-11-16T04:46:03.553Z,11.5
2022-11-16T05:00:30.430Z,11.4
2022-11-16T05:14:58.219Z,11.3
2022-11-16T05:29:26.265Z,11.4
2022-11-16T05:43:57.862Z,11.5
2022-11-16T05:58:23.886Z,11.3
2022-11-16T06:12:51.557Z,11.3
2022-11-16T06:27:20.053Z,11.3
2022-11-16T06:41:46.897Z,11.1
2022-11-16T06:56:17.010Z,11.4
2022-11-16T07:10:43.776Z,11.3
2022-11-16T07:25:11.911Z,11.3
2022-11-16T07:39:42.069Z,11.2
2022-11-16T07:54:08.862Z,11.2
2022-11-16T08:08:37.542Z,11
2022-11-16T08:23:07.340Z,11.1
2022-11-16T08:37:34.088Z,10.9
2022-11-16T08:52:00.365Z,11.1
2022-11-16T09:06:32.781Z,10.8
2022-11-16T09:21:02.428Z,11
2022-11-16T09:35:26.820Z,10.5
2022-11-16T09:50:04.603Z,10.7
2022-11-16T10:04:26.817Z,10.8
2022-11-16T10:18:54.328Z,9.8
2022-11-16T10:33:22.928Z,10.1
2022-11-16T10:47:50.985Z,9.1
2022-11-16T11:02:19.478Z,9
2022-11-16T11:16:45.650Z,9.3
2022-11-16T11:31:13.820Z,8.8
2022-11-16T11:45:41.084Z,9
2022-11-16T12:00:09.221Z,9.1
2022-11-16T12:14:41.182Z,9.3
2022-11-16T12:29:08.193Z,9.4
2022-11-16T12:43:37.333Z,9.2
2022-11-16T12:58:02.947Z,9.4
2022-11-16T13:12:30.980Z,9.2
2022-11-16T13:27:00.899Z,9.5
2022-11-16T13:41:27.899Z,9.3
2022-11-16T13:55:54.084Z,9.7
2022-11-16T14:10:22.746Z,9.4
2022-11-16T14:24:50.939Z,9.9
2022-11-16T14:39:20.160Z,9.6
2022-11-16T14:53:44.730Z,9.4
2022-11-16T15:08:12.233Z,9.7
2022-11-16T15:22:40.003Z,9.8
2022-11-16T15:37:08.444Z,9.6
2022-11-16T15:51:35.955Z,9.4
2022-11-16T16:06:04.293Z,9.5
2022-11-16T16:20:32.122Z,9.6
2022-11-16T16:34:59.415Z,9.5
2022-11-16T16:49:28.296Z,9.6
2022-11-16T17:03:56.382Z,10.3
2022-11-16T17:18:29.375Z,10.2
2022-11-16T17:32:53.494Z,10.6
2022-11-16T17:47:22.312Z,10.8
2022-11-16T18:01:50.568Z,11.2
2022-11-16T18:16:18.295Z,11
2022-11-16T18:30:44.874Z,10.6
2022-11-16T18:45:11.782Z,10.4
2022-11-16T18:59:40.823Z,10.6
2022-11-16T19:14:08.208Z,10.5
2022-11-16T19:28:36.752Z,10.3
2022-11-16T19:43:04.646Z,10.3
2022-11-16T19:57:32.749Z,10.1
2022-11-16T20:12:00.781Z,10.3
2022-11-16T20:26:29.660Z,10.4
2022-11-16T20:40:57.642Z,10.4
2022-11-16T20:55:26.261Z,10.5
2022-11-16T21:09:53.164Z,10.6
2022-11-16T21:24:20.461Z,10.6
2022-11-16T21:38:47.783Z,10.6
2022-11-16T21:53:16.333Z,10.7
2022-11-16T22:07:44.156Z,10.7
2022-11-16T22:22:13.428Z,10.7
2022-11-16T22:36:40.279Z,10.7
2022-11-16T22:51:09.269Z,10.7
2022-11-16T23:05:36.551Z,10.6
2022-11-16T23:20:04.775Z,10.5
2022-11-16T23:34:30.695Z,10.4
2022-11-16T23:49:00.486Z,10.4
